sensor_id;sensor_type;location;lat;lon;timestamp;P1;durP1;ratioP1;P2;durP2;ratioP2
59109;SDS011;44895;47.438;18.978;2024-02-26T13:20:02;12.45;;;8.50;;
59109;SDS011;44895;47.438;18.978;2024-02-26T13:23:08;10.15;;;7.07;;
59109;SDS011;44895;47.438;18.978;2024-02-26T13:26:15;9.85;;;7.57;;
59109;SDS011;44895;47.438;18.978;2024-02-26T13:29:19;10.07;;;6.68;;
59109;SDS011;44895;47.438;18.978;2024-02-26T13:32:22;13.13;;;5.45;;
59109;SDS011;44895;47.438;18.978;2024-02-26T13:35:34;9.20;;;6.22;;
59109;SDS011;44895;47.438;18.978;2024-02-26T13:38:38;8.85;;;5.30;;
59109;SDS011;44895;47.438;18.978;2024-02-26T13:41:42;11.18;;;6.47;;
59109;SDS011;44895;47.438;18.978;2024-02-26T13:44:46;10.68;;;6.57;;
59109;SDS011;44895;47.438;18.978;2024-02-26T13:47:50;8.45;;;5.60;;
59109;SDS011;44895;47.438;18.978;2024-02-26T13:50:54;9.23;;;6.47;;
59109;SDS011;44895;47.438;18.978;2024-02-26T13:53:58;10.93;;;6.18;;
59109;SDS011;44895;47.438;18.978;2024-02-26T13:57:02;9.52;;;6.30;;
59109;SDS011;44895;47.438;18.978;2024-02-26T14:00:07;13.43;;;8.25;;
59109;SDS011;44895;47.438;18.978;2024-02-26T14:03:15;11.45;;;7.82;;
59109;SDS011;44895;47.438;18.978;2024-02-26T14:06:19;11.00;;;7.68;;
59109;SDS011;44895;47.438;18.978;2024-02-26T14:09:23;11.52;;;9.30;;
59109;SDS011;44895;47.438;18.978;2024-02-26T14:12:27;11.48;;;9.48;;
59109;SDS011;44895;47.438;18.978;2024-02-26T14:15:31;13.65;;;10.85;;
59109;SDS011;44895;47.438;18.978;2024-02-26T14:18:37;14.68;;;10.35;;
59109;SDS011;44895;47.438;18.978;2024-02-26T14:21:41;11.95;;;9.48;;
59109;SDS011;44895;47.438;18.978;2024-02-26T14:24:45;12.63;;;8.98;;
59109;SDS011;44895;47.438;18.978;2024-02-26T14:27:49;12.55;;;7.80;;
59109;SDS011;44895;47.438;18.978;2024-02-26T14:30:53;11.32;;;8.93;;
59109;SDS011;44895;47.438;18.978;2024-02-26T14:33:57;12.68;;;10.40;;
59109;SDS011;44895;47.438;18.978;2024-02-26T14:37:01;12.40;;;9.05;;
59109;SDS011;44895;47.438;18.978;2024-02-26T14:40:06;12.27;;;9.60;;
59109;SDS011;44895;47.438;18.978;2024-02-26T14:43:11;17.88;;;11.07;;
59109;SDS011;44895;47.438;18.978;2024-02-26T14:46:15;13.30;;;10.73;;
59109;SDS011;44895;47.438;18.978;2024-02-26T14:49:19;15.10;;;10.77;;
59109;SDS011;44895;47.438;18.978;2024-02-26T14:52:22;15.32;;;9.30;;
59109;SDS011;44895;47.438;18.978;2024-02-26T14:55:26;13.65;;;10.35;;
59109;SDS011;44895;47.438;18.978;2024-02-26T14:58:30;14.60;;;8.82;;
59109;SDS011;44895;47.438;18.978;2024-02-26T15:01:34;14.07;;;9.60;;
59109;SDS011;44895;47.438;18.978;2024-02-26T15:04:37;15.65;;;10.38;;
59109;SDS011;44895;47.438;18.978;2024-02-26T15:07:41;13.75;;;8.48;;
59109;SDS011;44895;47.438;18.978;2024-02-26T15:10:45;16.92;;;9.90;;
59109;SDS011;44895;47.438;18.978;2024-02-26T15:13:52;11.60;;;9.35;;
59109;SDS011;44895;47.438;18.978;2024-02-26T15:16:55;17.27;;;9.57;;
59109;SDS011;44895;47.438;18.978;2024-02-26T15:19:59;11.77;;;8.27;;
59109;SDS011;44895;47.438;18.978;2024-02-26T15:23:04;16.58;;;10.43;;
59109;SDS011;44895;47.438;18.978;2024-02-26T15:26:09;13.05;;;8.25;;
59109;SDS011;44895;47.438;18.978;2024-02-26T15:29:13;12.55;;;9.02;;
59109;SDS011;44895;47.438;18.978;2024-02-26T15:32:17;13.63;;;8.80;;
59109;SDS011;44895;47.438;18.978;2024-02-26T15:35:21;14.32;;;9.30;;
59109;SDS011;44895;47.438;18.978;2024-02-26T15:38:25;16.85;;;10.43;;
59109;SDS011;44895;47.438;18.978;2024-02-26T15:41:30;17.13;;;8.98;;
59109;SDS011;44895;47.438;18.978;2024-02-26T15:44:34;16.48;;;10.05;;
59109;SDS011;44895;47.438;18.978;2024-02-26T15:47:41;12.30;;;8.55;;
59109;SDS011;44895;47.438;18.978;2024-02-26T15:50:45;16.48;;;9.52;;
59109;SDS011;44895;47.438;18.978;2024-02-26T15:53:49;13.32;;;9.70;;
59109;SDS011;44895;47.438;18.978;2024-02-26T15:56:53;11.77;;;8.43;;
59109;SDS011;44895;47.438;18.978;2024-02-26T15:59:57;13.98;;;10.30;;
59109;SDS011;44895;47.438;18.978;2024-02-26T16:03:04;17.33;;;10.55;;
59109;SDS011;44895;47.438;18.978;2024-02-26T16:06:19;20.67;;;11.45;;
59109;SDS011;44895;47.438;18.978;2024-02-26T16:09:29;16.00;;;9.80;;
59109;SDS011;44895;47.438;18.978;2024-02-26T16:12:41;13.90;;;9.02;;
59109;SDS011;44895;47.438;18.978;2024-02-26T16:15:58;13.07;;;10.52;;
59109;SDS011;44895;47.438;18.978;2024-02-26T16:19:17;24.60;;;13.55;;
59109;SDS011;44895;47.438;18.978;2024-02-26T16:22:21;17.35;;;11.30;;
59109;SDS011;44895;47.438;18.978;2024-02-26T16:25:25;21.60;;;13.02;;
59109;SDS011;44895;47.438;18.978;2024-02-26T16:28:30;16.45;;;11.23;;
59109;SDS011;44895;47.438;18.978;2024-02-26T16:31:34;19.60;;;13.18;;
59109;SDS011;44895;47.438;18.978;2024-02-26T16:34:37;17.25;;;14.80;;
59109;SDS011;44895;47.438;18.978;2024-02-26T16:37:41;17.00;;;13.90;;
59109;SDS011;44895;47.438;18.978;2024-02-26T16:40:45;30.73;;;17.15;;
59109;SDS011;44895;47.438;18.978;2024-02-26T16:43:50;28.90;;;18.60;;
59109;SDS011;44895;47.438;18.978;2024-02-26T16:46:53;28.27;;;15.90;;
59109;SDS011;44895;47.438;18.978;2024-02-26T16:49:57;22.73;;;15.85;;
59109;SDS011;44895;47.438;18.978;2024-02-26T16:53:01;32.08;;;16.15;;
59109;SDS011;44895;47.438;18.978;2024-02-26T16:56:08;21.70;;;14.55;;
59109;SDS011;44895;47.438;18.978;2024-02-26T16:59:13;34.05;;;16.33;;
59109;SDS011;44895;47.438;18.978;2024-02-26T17:02:17;25.17;;;15.13;;
59109;SDS011;44895;47.438;18.978;2024-02-26T17:05:21;28.80;;;17.90;;
59109;SDS011;44895;47.438;18.978;2024-02-26T17:08:25;23.88;;;18.30;;
59109;SDS011;44895;47.438;18.978;2024-02-26T17:11:29;24.52;;;18.58;;
59109;SDS011;44895;47.438;18.978;2024-02-26T17:14:33;34.17;;;23.63;;
59109;SDS011;44895;47.438;18.978;2024-02-26T17:17:37;38.33;;;27.40;;
59109;SDS011;44895;47.438;18.978;2024-02-26T17:20:41;45.83;;;29.58;;
59109;SDS011;44895;47.438;18.978;2024-02-26T17:23:45;47.45;;;33.90;;
59109;SDS011;44895;47.438;18.978;2024-02-26T17:26:49;54.72;;;41.83;;
59109;SDS011;44895;47.438;18.978;2024-02-26T17:29:52;56.67;;;45.67;;
59109;SDS011;44895;47.438;18.978;2024-02-26T17:32:56;66.63;;;52.53;;
59109;SDS011;44895;47.438;18.978;2024-02-26T17:35:59;69.82;;;54.60;;
59109;SDS011;44895;47.438;18.978;2024-02-26T17:39:04;64.75;;;50.80;;
59109;SDS011;44895;47.438;18.978;2024-02-26T17:42:08;61.05;;;48.03;;
59109;SDS011;44895;47.438;18.978;2024-02-26T17:45:11;59.72;;;47.50;;
59109;SDS011;44895;47.438;18.978;2024-02-26T17:48:15;60.58;;;48.58;;
59109;SDS011;44895;47.438;18.978;2024-02-26T17:51:19;54.75;;;44.63;;
59109;SDS011;44895;47.438;18.978;2024-02-26T17:54:23;53.60;;;44.35;;
59109;SDS011;44895;47.438;18.978;2024-02-26T17:57:27;45.35;;;38.40;;
59109;SDS011;44895;47.438;18.978;2024-02-26T18:00:31;44.65;;;34.67;;
59109;SDS011;44895;47.438;18.978;2024-02-26T18:03:36;37.72;;;30.35;;
59109;SDS011;44895;47.438;18.978;2024-02-26T18:06:40;35.20;;;23.48;;
59109;SDS011;44895;47.438;18.978;2024-02-26T18:09:46;29.45;;;22.65;;
59109;SDS011;44895;47.438;18.978;2024-02-26T18:12:49;31.48;;;20.92;;
59109;SDS011;44895;47.438;18.978;2024-02-26T18:15:53;25.52;;;19.63;;
59109;SDS011;44895;47.438;18.978;2024-02-26T18:18:57;27.00;;;18.40;;
59109;SDS011;44895;47.438;18.978;2024-02-26T18:22:00;24.08;;;18.42;;
59109;SDS011;44895;47.438;18.978;2024-02-26T18:25:05;22.73;;;18.23;;
59109;SDS011;44895;47.438;18.978;2024-02-26T18:28:09;22.95;;;17.25;;
59109;SDS011;44895;47.438;18.978;2024-02-26T18:31:13;23.35;;;16.48;;
59109;SDS011;44895;47.438;18.978;2024-02-26T18:34:19;25.58;;;17.67;;
59109;SDS011;44895;47.438;18.978;2024-02-26T18:37:23;23.88;;;17.73;;
59109;SDS011;44895;47.438;18.978;2024-02-26T18:40:27;29.70;;;21.45;;
59109;SDS011;44895;47.438;18.978;2024-02-26T18:43:32;29.13;;;20.52;;
59109;SDS011;44895;47.438;18.978;2024-02-26T18:46:44;28.15;;;18.15;;
59109;SDS011;44895;47.438;18.978;2024-02-26T18:49:49;30.83;;;18.30;;
59109;SDS011;44895;47.438;18.978;2024-02-26T18:52:54;21.40;;;17.40;;
59109;SDS011;44895;47.438;18.978;2024-02-26T18:56:04;25.75;;;18.77;;
59109;SDS011;44895;47.438;18.978;2024-02-26T18:59:09;27.73;;;19.80;;
59109;SDS011;44895;47.438;18.978;2024-02-26T19:02:19;27.33;;;19.05;;
59109;SDS011;44895;47.438;18.978;2024-02-26T19:05:23;25.33;;;16.67;;
59109;SDS011;44895;47.438;18.978;2024-02-26T19:08:29;22.45;;;19.60;;
59109;SDS011;44895;47.438;18.978;2024-02-26T19:11:35;30.90;;;19.80;;
59109;SDS011;44895;47.438;18.978;2024-02-26T19:14:42;22.60;;;18.42;;
59109;SDS011;44895;47.438;18.978;2024-02-26T19:17:47;28.20;;;19.98;;
59109;SDS011;44895;47.438;18.978;2024-02-26T19:20:52;24.63;;;17.42;;
59109;SDS011;44895;47.438;18.978;2024-02-26T19:23:57;25.42;;;18.88;;
59109;SDS011;44895;47.438;18.978;2024-02-26T19:27:05;24.27;;;19.05;;
59109;SDS011;44895;47.438;18.978;2024-02-26T19:30:10;25.20;;;19.77;;
59109;SDS011;44895;47.438;18.978;2024-02-26T19:33:16;27.88;;;21.63;;
59109;SDS011;44895;47.438;18.978;2024-02-26T19:36:20;31.67;;;22.85;;
59109;SDS011;44895;47.438;18.978;2024-02-26T19:39:26;30.23;;;24.63;;
59109;SDS011;44895;47.438;18.978;2024-02-26T19:42:31;33.25;;;24.88;;
59109;SDS011;44895;47.438;18.978;2024-02-26T19:45:36;34.42;;;24.95;;
59109;SDS011;44895;47.438;18.978;2024-02-26T19:48:42;35.53;;;22.45;;
59109;SDS011;44895;47.438;18.978;2024-02-26T19:51:48;28.95;;;22.95;;
59109;SDS011;44895;47.438;18.978;2024-02-26T19:54:53;31.67;;;25.27;;
59109;SDS011;44895;47.438;18.978;2024-02-26T19:57:58;29.30;;;22.92;;
59109;SDS011;44895;47.438;18.978;2024-02-26T20:01:02;27.30;;;21.52;;
59109;SDS011;44895;47.438;18.978;2024-02-26T20:04:12;29.25;;;23.10;;
59109;SDS011;44895;47.438;18.978;2024-02-26T20:07:19;26.95;;;20.58;;
59109;SDS011;44895;47.438;18.978;2024-02-26T20:10:24;31.58;;;23.23;;
59109;SDS011;44895;47.438;18.978;2024-02-26T20:13:31;30.50;;;22.95;;
59109;SDS011;44895;47.438;18.978;2024-02-26T20:16:36;30.75;;;22.35;;
59109;SDS011;44895;47.438;18.978;2024-02-26T20:19:42;36.65;;;26.15;;
59109;SDS011;44895;47.438;18.978;2024-02-26T20:22:47;42.90;;;28.73;;
59109;SDS011;44895;47.438;18.978;2024-02-26T20:25:52;39.22;;;26.85;;
59109;SDS011;44895;47.438;18.978;2024-02-26T20:29:01;45.67;;;28.55;;
59109;SDS011;44895;47.438;18.978;2024-02-26T20:32:05;36.25;;;25.65;;
59109;SDS011;44895;47.438;18.978;2024-02-26T20:35:10;52.30;;;32.03;;
59109;SDS011;44895;47.438;18.978;2024-02-26T20:38:15;47.30;;;26.65;;
59109;SDS011;44895;47.438;18.978;2024-02-26T20:41:21;41.67;;;28.08;;
59109;SDS011;44895;47.438;18.978;2024-02-26T20:44:26;40.35;;;26.52;;
59109;SDS011;44895;47.438;18.978;2024-02-26T20:47:31;39.40;;;25.33;;
59109;SDS011;44895;47.438;18.978;2024-02-26T20:50:36;36.58;;;24.90;;
59109;SDS011;44895;47.438;18.978;2024-02-26T20:53:40;36.08;;;26.52;;
59109;SDS011;44895;47.438;18.978;2024-02-26T20:56:48;35.50;;;25.58;;
59109;SDS011;44895;47.438;18.978;2024-02-26T20:59:53;47.40;;;29.83;;
59109;SDS011;44895;47.438;18.978;2024-02-26T21:02:58;38.45;;;28.25;;
59109;SDS011;44895;47.438;18.978;2024-02-26T21:06:04;33.08;;;23.92;;
59109;SDS011;44895;47.438;18.978;2024-02-26T21:09:08;36.83;;;27.88;;
59109;SDS011;44895;47.438;18.978;2024-02-26T21:12:12;31.80;;;24.23;;
59109;SDS011;44895;47.438;18.978;2024-02-26T21:15:16;42.05;;;27.83;;
59109;SDS011;44895;47.438;18.978;2024-02-26T21:18:20;36.50;;;27.75;;
59109;SDS011;44895;47.438;18.978;2024-02-26T21:21:24;38.88;;;26.58;;
59109;SDS011;44895;47.438;18.978;2024-02-26T21:24:28;35.20;;;27.00;;
59109;SDS011;44895;47.438;18.978;2024-02-26T21:27:32;39.40;;;30.05;;
59109;SDS011;44895;47.438;18.978;2024-02-26T21:30:36;43.40;;;31.48;;
59109;SDS011;44895;47.438;18.978;2024-02-26T21:33:40;36.45;;;30.05;;
59109;SDS011;44895;47.438;18.978;2024-02-26T21:36:44;37.78;;;30.45;;
59109;SDS011;44895;47.438;18.978;2024-02-26T21:39:48;39.05;;;28.05;;
59109;SDS011;44895;47.438;18.978;2024-02-26T21:42:51;51.53;;;30.80;;
59109;SDS011;44895;47.438;18.978;2024-02-26T21:45:55;41.38;;;31.30;;
59109;SDS011;44895;47.438;18.978;2024-02-26T21:48:59;38.55;;;30.48;;
59109;SDS011;44895;47.438;18.978;2024-02-26T21:52:03;42.35;;;32.83;;
59109;SDS011;44895;47.438;18.978;2024-02-26T21:55:08;38.78;;;31.52;;
59109;SDS011;44895;47.438;18.978;2024-02-26T21:58:14;40.92;;;31.42;;
59109;SDS011;44895;47.438;18.978;2024-02-26T22:01:18;41.13;;;33.65;;
59109;SDS011;44895;47.438;18.978;2024-02-26T22:04:22;37.70;;;30.25;;
59109;SDS011;44895;47.438;18.978;2024-02-26T22:07:25;46.95;;;32.55;;
59109;SDS011;44895;47.438;18.978;2024-02-26T22:10:29;48.33;;;35.75;;
59109;SDS011;44895;47.438;18.978;2024-02-26T22:13:33;42.13;;;31.63;;
59109;SDS011;44895;47.438;18.978;2024-02-26T22:16:37;40.78;;;31.73;;
59109;SDS011;44895;47.438;18.978;2024-02-26T22:19:41;41.38;;;30.30;;
59109;SDS011;44895;47.438;18.978;2024-02-26T22:22:45;41.80;;;34.17;;
59109;SDS011;44895;47.438;18.978;2024-02-26T22:25:49;42.30;;;32.05;;
59109;SDS011;44895;47.438;18.978;2024-02-26T22:28:53;41.63;;;34.97;;
59109;SDS011;44895;47.438;18.978;2024-02-26T22:31:56;38.83;;;31.48;;
59109;SDS011;44895;47.438;18.978;2024-02-26T22:35:02;42.83;;;33.55;;
59109;SDS011;44895;47.438;18.978;2024-02-26T22:38:06;40.22;;;33.20;;
59109;SDS011;44895;47.438;18.978;2024-02-26T22:41:10;50.45;;;38.70;;
59109;SDS011;44895;47.438;18.978;2024-02-26T22:44:14;49.55;;;35.58;;
59109;SDS011;44895;47.438;18.978;2024-02-26T22:47:17;57.33;;;38.85;;
59109;SDS011;44895;47.438;18.978;2024-02-26T22:50:21;44.15;;;36.47;;
59109;SDS011;44895;47.438;18.978;2024-02-26T22:53:24;44.22;;;35.53;;
59109;SDS011;44895;47.438;18.978;2024-02-26T22:56:28;50.25;;;35.75;;
59109;SDS011;44895;47.438;18.978;2024-02-26T22:59:32;41.50;;;32.70;;
59109;SDS011;44895;47.438;18.978;2024-02-26T23:02:36;45.15;;;33.03;;
59109;SDS011;44895;47.438;18.978;2024-02-26T23:05:39;48.83;;;38.30;;
59109;SDS011;44895;47.438;18.978;2024-02-26T23:08:43;50.40;;;35.08;;
59109;SDS011;44895;47.438;18.978;2024-02-26T23:11:47;43.17;;;35.10;;
59109;SDS011;44895;47.438;18.978;2024-02-26T23:14:52;44.92;;;36.35;;
59109;SDS011;44895;47.438;18.978;2024-02-26T23:17:57;47.20;;;35.97;;
59109;SDS011;44895;47.438;18.978;2024-02-26T23:21:00;41.20;;;34.17;;
59109;SDS011;44895;47.438;18.978;2024-02-26T23:24:04;40.53;;;31.35;;
59109;SDS011;44895;47.438;18.978;2024-02-26T23:27:08;36.42;;;31.02;;
59109;SDS011;44895;47.438;18.978;2024-02-26T23:30:12;41.03;;;36.20;;
59109;SDS011;44895;47.438;18.978;2024-02-26T23:33:17;43.35;;;34.58;;
59109;SDS011;44895;47.438;18.978;2024-02-26T23:36:21;46.05;;;34.22;;
59109;SDS011;44895;47.438;18.978;2024-02-26T23:39:25;36.75;;;32.15;;
59109;SDS011;44895;47.438;18.978;2024-02-26T23:42:28;50.05;;;32.60;;
59109;SDS011;44895;47.438;18.978;2024-02-26T23:45:32;39.97;;;34.22;;
59109;SDS011;44895;47.438;18.978;2024-02-26T23:48:36;37.10;;;29.63;;
59109;SDS011;44895;47.438;18.978;2024-02-26T23:51:40;41.17;;;31.83;;
59109;SDS011;44895;47.438;18.978;2024-02-26T23:54:44;37.75;;;32.08;;
59109;SDS011;44895;47.438;18.978;2024-02-26T23:57:48;38.72;;;31.42;;
